createdAt,value
2022-09-26T00:01:04.273Z,100621.75
2022-09-26T00:02:06.665Z,100620.10
2022-09-26T00:03:10.701Z,100616.93
2022-09-26T00:04:23.288Z,100613.75
2022-09-26T00:05:25.796Z,100613.59
2022-09-26T00:06:28.399Z,100611.22
2022-09-26T00:07:30.523Z,100608.70
2022-09-26T00:08:32.603Z,100613.46
2022-09-26T00:09:34.308Z,100611.23
2022-09-26T00:10:35.930Z,100607.02
2022-09-26T00:11:38.270Z,100608.48
2022-09-26T00:12:40.022Z,100608.13
2022-09-26T00:13:42.141Z,100607.98
2022-09-26T00:14:44.157Z,100606.42
2022-09-26T00:15:47.085Z,100602.41
2022-09-26T00:16:49.399Z,100601.52
2022-09-26T00:17:51.349Z,100602.20
2022-09-26T00:18:55.215Z,100597.46
2022-09-26T00:19:56.899Z,100597.41
2022-09-26T00:21:10.633Z,100598.78
2022-09-26T00:22:12.327Z,100599.93
2022-09-26T00:23:14.990Z,100601.28
2022-09-26T00:24:16.848Z,100597.84
2022-09-26T00:25:18.814Z,100597.52
2022-09-26T00:26:22.690Z,100598.30
2022-09-26T00:27:24.376Z,100595.62
2022-09-26T00:28:27.436Z,100597.52
2022-09-26T00:29:29.159Z,100597.14
2022-09-26T00:30:30.969Z,100598.79
2022-09-26T00:31:37.388Z,100598.32
2022-09-26T00:32:39.443Z,100595.59
2022-09-26T00:33:41.625Z,100597.73
2022-09-26T00:34:44.416Z,100594.90
2022-09-26T00:35:54.684Z,100592.66
2022-09-26T00:36:56.304Z,100595.27
2022-09-26T00:37:58.007Z,100589.26
2022-09-26T00:39:00.170Z,100587.92
2022-09-26T00:40:01.872Z,100584.29
2022-09-26T00:41:04.632Z,100581.19
2022-09-26T00:42:09.169Z,100578.80
2022-09-26T00:43:34.457Z,100576.29
2022-09-26T00:44:45.322Z,100574.06
2022-09-26T00:45:47.513Z,100575.38
2022-09-26T00:46:50.812Z,100576.28
2022-09-26T00:48:03.012Z,100577.58
2022-09-26T00:49:44.218Z,100575.07
2022-09-26T00:50:47.847Z,100572.44
2022-09-26T00:51:57.183Z,100570.30
2022-09-26T00:53:16.584Z,100567.66
2022-09-26T00:54:19.552Z,100565.39
2022-09-26T00:55:24.948Z,100561.21
2022-09-26T00:56:32.896Z,100560.13
2022-09-26T00:57:44.820Z,100558.33
2022-09-26T00:59:11.934Z,100561.41
2022-09-26T01:00:15.075Z,100566.52
2022-09-26T01:01:17.754Z,100562.85
2022-09-26T01:02:25.281Z,100566.39
2022-09-26T01:03:30.749Z,100564.62
2022-09-26T01:04:36.594Z,100560.45
2022-09-26T01:05:38.493Z,100557.36
2022-09-26T01:06:40.881Z,100555.02
2022-09-26T01:07:43.970Z,100554.04
2022-09-26T01:08:53.698Z,100552.86
2022-09-26T01:09:58.000Z,100550.99
2022-09-26T01:11:01.807Z,100547.86
2022-09-26T01:12:06.030Z,100548.60
2022-09-26T01:13:08.083Z,100545.88
2022-09-26T01:14:12.018Z,100542.82
2022-09-26T01:15:14.142Z,100543.91
2022-09-26T01:16:16.214Z,100542.17
2022-09-26T01:17:18.760Z,100545.80
2022-09-26T01:18:20.793Z,100545.22
2022-09-26T01:19:49.828Z,100544.41
2022-09-26T01:21:01.749Z,100542.34
2022-09-26T01:22:17.257Z,100540.91
2022-09-26T01:23:41.320Z,100537.77
2022-09-26T01:24:58.456Z,100535.81
2022-09-26T01:26:18.867Z,100540.73
2022-09-26T01:27:39.937Z,100539.79
2022-09-26T01:29:19.289Z,100539.40
2022-09-26T01:30:25.958Z,100539.80
2022-09-26T01:33:34.381Z,100540.34
2022-09-26T01:34:46.557Z,100535.45
2022-09-26T01:36:07.697Z,100533.58
2022-09-26T01:37:32.109Z,100533.14
2022-09-26T01:38:59.357Z,100530.45
2022-09-26T01:40:16.496Z,100533.02
2022-09-26T01:41:53.700Z,100533.94
2022-09-26T01:43:12.974Z,100533.77
2022-09-26T01:44:44.080Z,100536.27
2022-09-26T01:45:53.594Z,100535.66
2022-09-26T01:47:08.123Z,100535.61
2022-09-26T01:48:17.755Z,100533.65
2022-09-26T01:49:30.628Z,100526.84
2022-09-26T01:50:42.435Z,100528.23
2022-09-26T01:51:53.585Z,100527.00
2022-09-26T01:53:04.413Z,100526.84
2022-09-26T01:54:16.602Z,100527.15
2022-09-26T01:55:27.698Z,100524.63
2022-09-26T01:56:36.322Z,100524.19
2022-09-26T01:57:47.878Z,100524.23
2022-09-26T01:58:54.357Z,100521.42
2022-09-26T02:00:01.394Z,100519.20
2022-09-26T02:01:09.166Z,100515.62
2022-09-26T02:02:18.769Z,100514.34
2022-09-26T02:03:26.637Z,100516.86
2022-09-26T02:04:36.137Z,100515.55
2022-09-26T02:05:46.635Z,100515.79
2022-09-26T02:07:21.088Z,100515.00
2022-09-26T02:09:07.109Z,100514.11
2022-09-26T02:10:21.429Z,100510.38
2022-09-26T02:11:25.875Z,100507.67
2022-09-26T02:12:33.423Z,100507.26
2022-09-26T02:13:45.487Z,100506.35
2022-09-26T02:14:48.932Z,100505.77
2022-09-26T02:15:56.728Z,100507.30
2022-09-26T02:17:05.001Z,100506.29
2022-09-26T02:18:52.902Z,100506.73
2022-09-26T02:20:14.861Z,100507.23
2022-09-26T02:21:21.430Z,100507.66
2022-09-26T02:22:26.900Z,100503.96
2022-09-26T02:23:28.638Z,100503.33
2022-09-26T02:24:30.548Z,100497.94
2022-09-26T02:25:33.806Z,100494.92
2022-09-26T02:26:35.550Z,100492.41
2022-09-26T02:27:37.988Z,100490.96
2022-09-26T02:28:39.892Z,100490.27
2022-09-26T02:29:43.387Z,100490.65
2022-09-26T02:30:46.859Z,100490.23
2022-09-26T02:32:15.273Z,100490.91
2022-09-26T02:33:17.463Z,100490.60
2022-09-26T02:34:19.353Z,100489.73
2022-09-26T02:35:41.166Z,100495.70
2022-09-26T02:36:43.766Z,100494.11
2022-09-26T02:37:46.680Z,100495.64
2022-09-26T02:38:48.457Z,100499.40
2022-09-26T02:40:10.977Z,100498.80
2022-09-26T02:41:50.163Z,100500.02
2022-09-26T02:43:15.953Z,100498.89
2022-09-26T02:44:39.572Z,100494.02
2022-09-26T02:45:57.550Z,100489.05
2022-09-26T02:47:20.974Z,100489.23
2022-09-26T02:48:48.796Z,100483.38
2022-09-26T02:50:00.475Z,100480.15
2022-09-26T02:51:15.192Z,100482.67
2022-09-26T02:52:45.193Z,100481.84
2022-09-26T02:54:07.358Z,100481.88
2022-09-26T02:55:59.471Z,100484.45
2022-09-26T02:57:09.696Z,100483.23
2022-09-26T02:58:35.444Z,100478.80
2022-09-26T03:00:19.245Z,100481.58
2022-09-26T03:01:32.147Z,100478.83
2022-09-26T03:03:05.286Z,100476.26
2022-09-26T03:04:25.944Z,100475.16
2022-09-26T03:05:30.355Z,100475.36
2022-09-26T03:06:45.085Z,100472.85
2022-09-26T03:07:59.348Z,100474.48
2022-09-26T03:09:04.292Z,100466.88
2022-09-26T03:10:08.485Z,100467.87
2022-09-26T03:11:14.076Z,100464.98
2022-09-26T03:12:17.447Z,100463.66
2022-09-26T03:13:19.911Z,100467.16
2022-09-26T03:14:21.563Z,100464.59
2022-09-26T03:15:24.877Z,100461.09
2022-09-26T03:16:32.436Z,100461.33
2022-09-26T03:17:37.269Z,100460.96
2022-09-26T03:18:51.222Z,100457.76
2022-09-26T03:20:00.825Z,100456.02
2022-09-26T03:21:02.671Z,100454.02
2022-09-26T03:22:04.871Z,100450.86
2022-09-26T03:23:06.995Z,100449.92
2022-09-26T03:24:09.048Z,100446.17
2022-09-26T03:25:15.561Z,100445.02
2022-09-26T03:26:26.914Z,100443.27
2022-09-26T03:27:35.783Z,100447.68
2022-09-26T03:28:38.208Z,100450.15
2022-09-26T03:29:40.327Z,100448.40
2022-09-26T03:30:44.184Z,100444.88
2022-09-26T03:32:00.454Z,100448.37
2022-09-26T03:33:03.055Z,100443.71
2022-09-26T03:34:04.957Z,100444.23
2022-09-26T03:35:07.944Z,100445.23
2022-09-26T03:36:09.635Z,100444.29
2022-09-26T03:37:12.758Z,100443.14
2022-09-26T03:38:14.775Z,100443.35
2022-09-26T03:39:22.435Z,100438.69
2022-09-26T03:40:42.448Z,100440.71
2022-09-26T03:42:23.867Z,100435.59
2022-09-26T03:43:27.141Z,100430.29
2022-09-26T03:44:29.716Z,100430.05
2022-09-26T03:45:50.620Z,100424.69
2022-09-26T03:46:56.109Z,100423.73
2022-09-26T03:47:57.882Z,100424.13
2022-09-26T03:49:00.346Z,100420.66
2022-09-26T03:50:02.373Z,100418.96
2022-09-26T03:51:07.016Z,100417.40
2022-09-26T03:52:12.458Z,100416.27
2022-09-26T03:53:14.423Z,100418.84
2022-09-26T03:54:16.280Z,100416.50
2022-09-26T03:55:17.943Z,100415.04
2022-09-26T03:56:20.669Z,100413.39
2022-09-26T03:57:22.472Z,100409.58
2022-09-26T03:58:32.027Z,100410.18
2022-09-26T03:59:33.857Z,100410.48
2022-09-26T04:00:37.785Z,100409.41
2022-09-26T04:01:41.065Z,100413.66
2022-09-26T04:02:43.440Z,100412.29
2022-09-26T04:03:51.526Z,100414.77
2022-09-26T04:04:54.890Z,100419.39
2022-09-26T04:05:56.540Z,100414.66
2022-09-26T04:06:59.358Z,100418.13
2022-09-26T04:08:02.382Z,100416.38
2022-09-26T04:09:04.550Z,100413.59
2022-09-26T04:10:07.124Z,100414.45
2022-09-26T04:11:11.610Z,100410.75
2022-09-26T04:12:13.315Z,100409.45
2022-09-26T04:13:46.600Z,100409.07
2022-09-26T04:14:39.351Z,100405.38
2022-09-26T04:15:41.111Z,100408.59
2022-09-26T04:16:47.005Z,100408.88
2022-09-26T04:17:57.710Z,100410.24
2022-09-26T04:18:59.518Z,100407.89
2022-09-26T04:20:02.108Z,100410.81
2022-09-26T04:21:10.208Z,100413.23
2022-09-26T04:22:12.451Z,100410.15
2022-09-26T04:23:14.781Z,100411.58
2022-09-26T04:24:16.644Z,100408.22
2022-09-26T04:25:18.383Z,100411.44
2022-09-26T04:26:23.909Z,100408.84
2022-09-26T04:27:28.195Z,100405.89
2022-09-26T04:28:30.338Z,100406.09
2022-09-26T04:29:32.090Z,100406.14
2022-09-26T04:30:51.140Z,100409.90
2022-09-26T04:31:53.797Z,100408.29
2022-09-26T04:32:59.736Z,100409.95
2022-09-26T04:34:10.311Z,100402.98
2022-09-26T04:35:11.961Z,100409.17
2022-09-26T04:36:15.516Z,100408.04
2022-09-26T04:37:20.477Z,100404.02
2022-09-26T04:38:22.269Z,100408.85
2022-09-26T04:39:24.796Z,100405.59
2022-09-26T04:40:26.591Z,100405.33
2022-09-26T04:41:41.226Z,100403.22
2022-09-26T04:42:42.977Z,100404.37
2022-09-26T04:43:45.529Z,100406.20
2022-09-26T04:44:47.928Z,100405.14
2022-09-26T04:45:50.832Z,100403.17
2022-09-26T04:46:53.376Z,100402.77
2022-09-26T04:47:58.534Z,100403.77
2022-09-26T04:49:00.973Z,100400.30
2022-09-26T04:50:03.446Z,100403.52
2022-09-26T04:51:10.959Z,100400.13
2022-09-26T04:52:13.107Z,100405.63
2022-09-26T04:53:17.404Z,100408.23
2022-09-26T04:54:45.119Z,100402.86
2022-09-26T04:55:47.349Z,100401.54
2022-09-26T04:56:49.189Z,100398.77
2022-09-26T04:57:51.588Z,100399.70
2022-09-26T04:58:55.751Z,100397.39
2022-09-26T04:59:58.464Z,100398.57
2022-09-26T05:01:08.218Z,100397.35
2022-09-26T05:02:30.371Z,100395.34
2022-09-26T05:03:32.845Z,100391.84
2022-09-26T05:04:35.397Z,100392.65
2022-09-26T05:05:39.145Z,100393.03
2022-09-26T05:06:41.028Z,100386.26
2022-09-26T05:07:47.587Z,100386.27
2022-09-26T05:08:50.187Z,100382.58
2022-09-26T05:09:55.439Z,100383.36
2022-09-26T05:11:01.533Z,100380.77
2022-09-26T05:12:03.605Z,100381.47
2022-09-26T05:13:07.010Z,100378.66
2022-09-26T05:14:10.162Z,100375.83
2022-09-26T05:15:12.933Z,100374.52
2022-09-26T05:16:15.457Z,100374.95
2022-09-26T05:17:20.917Z,100376.25
2022-09-26T05:18:23.608Z,100374.98
2022-09-26T05:19:26.190Z,100374.70
2022-09-26T05:20:51.170Z,100379.23
2022-09-26T05:21:53.081Z,100382.64
2022-09-26T05:22:58.242Z,100382.68
2022-09-26T05:24:18.688Z,100382.39
2022-09-26T05:25:39.233Z,100382.88
2022-09-26T05:26:47.183Z,100380.63
2022-09-26T05:27:50.091Z,100379.23
2022-09-26T05:28:55.024Z,100383.20
2022-09-26T05:30:00.278Z,100384.35
2022-09-26T05:31:02.319Z,100382.63
2022-09-26T05:32:04.304Z,100379.11
2022-09-26T05:33:12.137Z,100377.90
2022-09-26T05:34:19.482Z,100379.36
2022-09-26T05:35:21.789Z,100379.98
2022-09-26T05:36:25.495Z,100380.34
2022-09-26T05:37:27.322Z,100379.56
2022-09-26T05:38:29.288Z,100378.36
2022-09-26T05:39:50.014Z,100375.91
2022-09-26T05:40:56.414Z,100373.67
2022-09-26T05:41:59.101Z,100371.00
2022-09-26T05:43:03.645Z,100365.21
2022-09-26T05:44:05.430Z,100362.62
2022-09-26T05:45:09.183Z,100365.52
2022-09-26T05:46:11.861Z,100365.23
2022-09-26T05:47:19.112Z,100365.50
2022-09-26T05:48:20.937Z,100365.23
2022-09-26T05:49:23.063Z,100371.13
2022-09-26T05:50:24.737Z,100369.81
2022-09-26T05:51:26.456Z,100370.20
2022-09-26T05:52:30.290Z,100369.21
2022-09-26T05:53:32.625Z,100368.06
2022-09-26T05:54:34.912Z,100362.83
2022-09-26T05:55:40.510Z,100362.81
2022-09-26T05:57:17.485Z,100361.10
2022-09-26T05:58:31.671Z,100360.45
2022-09-26T05:59:56.455Z,100355.21
2022-09-26T06:01:05.451Z,100355.75
2022-09-26T06:02:07.790Z,100355.80
2022-09-26T06:03:33.842Z,100355.77
2022-09-26T06:04:46.596Z,100353.08
2022-09-26T06:06:09.798Z,100358.84
2022-09-26T06:07:12.477Z,100354.96
2022-09-26T06:08:15.397Z,100358.27
2022-09-26T06:09:19.908Z,100356.55
2022-09-26T06:10:40.135Z,100357.38
2022-09-26T06:11:41.894Z,100357.59
2022-09-26T06:12:50.720Z,100354.56
2022-09-26T06:13:55.098Z,100350.39
2022-09-26T06:14:57.514Z,100346.82
2022-09-26T06:16:07.673Z,100341.83
2022-09-26T06:17:09.415Z,100343.76
2022-09-26T06:18:11.200Z,100342.02
2022-09-26T06:19:13.304Z,100343.18
2022-09-26T06:20:16.611Z,100336.98
2022-09-26T06:21:19.573Z,100342.42
2022-09-26T06:22:25.568Z,100341.05
2022-09-26T06:23:27.252Z,100341.93
2022-09-26T06:24:29.295Z,100341.23
2022-09-26T06:25:34.625Z,100341.94
2022-09-26T06:26:37.966Z,100338.39
2022-09-26T06:27:40.041Z,100335.58
2022-09-26T06:28:41.944Z,100339.45
2022-09-26T06:29:43.631Z,100339.49
2022-09-26T06:30:45.530Z,100340.55
2022-09-26T06:31:55.092Z,100339.27
2022-09-26T06:32:59.523Z,100346.20
2022-09-26T06:34:19.749Z,100348.58
2022-09-26T06:35:24.856Z,100345.55
2022-09-26T06:36:38.159Z,100343.04
2022-09-26T06:37:40.059Z,100342.05
2022-09-26T06:38:41.989Z,100349.63
2022-09-26T06:39:49.458Z,100348.48
2022-09-26T06:40:52.346Z,100344.84
2022-09-26T06:41:55.309Z,100344.81
2022-09-26T06:43:06.920Z,100346.33
2022-09-26T06:44:37.364Z,100346.70
2022-09-26T06:46:05.121Z,100346.72
2022-09-26T06:47:15.404Z,100345.67
2022-09-26T06:48:23.722Z,100341.95
2022-09-26T06:49:55.319Z,100346.98
2022-09-26T06:51:01.758Z,100352.20
2022-09-26T06:52:04.943Z,100350.95
2022-09-26T06:53:10.481Z,100352.38
2022-09-26T06:54:12.599Z,100352.99
2022-09-26T06:55:14.534Z,100351.80
2022-09-26T06:56:16.481Z,100352.41
2022-09-26T06:57:18.182Z,100352.77
2022-09-26T06:58:20.512Z,100356.42
2022-09-26T06:59:28.428Z,100354.61
2022-09-26T07:00:51.376Z,100360.80
2022-09-26T07:02:16.317Z,100367.20
2022-09-26T07:03:45.902Z,100368.77
2022-09-26T07:05:06.936Z,100369.54
2022-09-26T07:06:13.372Z,100367.41
2022-09-26T07:07:17.234Z,100361.96
2022-09-26T07:08:19.617Z,100358.13
2022-09-26T07:09:21.561Z,100360.20
2022-09-26T07:10:35.868Z,100361.11
2022-09-26T07:12:09.448Z,100354.88
2022-09-26T07:13:04.669Z,100359.71
2022-09-26T07:14:07.465Z,100360.17
2022-09-26T07:15:15.511Z,100356.91
2022-09-26T07:16:18.257Z,100364.17
2022-09-26T07:17:30.609Z,100365.95
2022-09-26T07:18:46.664Z,100360.67
2022-09-26T07:20:12.988Z,100356.16
2022-09-26T07:21:44.373Z,100356.23
2022-09-26T07:23:08.054Z,100349.17
2022-09-26T07:24:13.690Z,100348.77
2022-09-26T07:25:16.009Z,100346.18
2022-09-26T07:26:18.223Z,100346.02
2022-09-26T07:27:20.668Z,100346.95
2022-09-26T07:28:22.474Z,100349.00
2022-09-26T07:29:25.316Z,100350.55
2022-09-26T07:30:28.087Z,100347.02
2022-09-26T07:31:38.526Z,100345.92
2022-09-26T07:32:43.548Z,100346.20
2022-09-26T07:33:55.733Z,100344.36
2022-09-26T07:35:03.023Z,100343.18
2022-09-26T07:36:05.897Z,100343.55
2022-09-26T07:37:08.094Z,100346.91
2022-09-26T07:38:12.608Z,100348.23
2022-09-26T07:39:15.120Z,100345.84
2022-09-26T07:40:19.191Z,100345.77
2022-09-26T07:41:22.436Z,100349.10
2022-09-26T07:42:24.340Z,100347.35
2022-09-26T07:43:53.326Z,100347.91
2022-09-26T07:46:29.071Z,100346.39
2022-09-26T07:47:51.166Z,100342.70
2022-09-26T07:49:30.162Z,100342.86
2022-09-26T07:50:45.783Z,100341.25
2022-09-26T07:52:00.118Z,100342.55
2022-09-26T07:53:11.853Z,100342.23
2022-09-26T07:54:39.800Z,100340.61
2022-09-26T07:56:12.217Z,100340.66
2022-09-26T07:57:36.229Z,100341.11
2022-09-26T07:58:47.845Z,100339.97
2022-09-26T08:00:12.113Z,100339.16
2022-09-26T08:01:20.125Z,100338.84
2022-09-26T08:02:44.997Z,100339.88
2022-09-26T08:03:56.687Z,100341.20
2022-09-26T08:05:06.490Z,100342.59
2022-09-26T08:06:09.403Z,100342.25
2022-09-26T08:07:11.929Z,100343.05
2022-09-26T08:08:18.966Z,100341.41
2022-09-26T08:09:35.861Z,100340.42
2022-09-26T08:11:04.016Z,100338.35
2022-09-26T08:12:35.681Z,100340.96
2022-09-26T08:13:45.100Z,100334.84
2022-09-26T08:15:25.425Z,100338.98
2022-09-26T08:16:40.874Z,100334.42
2022-09-26T08:17:43.225Z,100338.51
2022-09-26T08:18:46.547Z,100339.14
2022-09-26T08:19:48.779Z,100338.38
2022-09-26T08:20:51.154Z,100342.48
2022-09-26T08:21:53.048Z,100344.10
2022-09-26T08:22:55.642Z,100344.46
2022-09-26T08:23:57.597Z,100343.00
2022-09-26T08:25:18.044Z,100339.74
2022-09-26T08:26:44.189Z,100338.86
2022-09-26T08:27:59.473Z,100340.30
2022-09-26T08:29:02.148Z,100335.29
2022-09-26T08:30:04.810Z,100336.08
2022-09-26T08:31:08.512Z,100338.29
2022-09-26T08:32:10.987Z,100336.85
2022-09-26T08:33:13.676Z,100338.29
2022-09-26T08:34:19.169Z,100344.30
2022-09-26T08:35:42.358Z,100338.66
2022-09-26T08:37:11.644Z,100338.70
2022-09-26T08:38:30.155Z,100342.64
2022-09-26T08:40:00.053Z,100342.99
2022-09-26T08:41:54.577Z,100337.52
2022-09-26T08:43:29.354Z,100339.83
2022-09-26T08:44:53.550Z,100343.64
2022-09-26T08:46:50.079Z,100342.92
2022-09-26T08:48:26.031Z,100344.89
2022-09-26T08:49:47.596Z,100339.81
2022-09-26T08:50:53.346Z,100339.41
2022-09-26T08:52:00.829Z,100341.69
2022-09-26T08:53:36.948Z,100344.15
2022-09-26T08:54:42.695Z,100340.53
2022-09-26T08:55:47.266Z,100341.84
2022-09-26T08:56:54.809Z,100341.00
2022-09-26T08:58:16.233Z,100338.73
2022-09-26T08:59:40.357Z,100339.66
2022-09-26T09:00:42.175Z,100330.89
2022-09-26T09:01:48.809Z,100331.33
2022-09-26T09:03:09.896Z,100334.91
2022-09-26T09:04:53.817Z,100331.55
2022-09-26T09:06:05.524Z,100330.83
2022-09-26T09:07:21.313Z,100329.33
2022-09-26T09:08:47.629Z,100324.99
2022-09-26T09:10:03.649Z,100329.98
2022-09-26T09:11:51.263Z,100327.64
2022-09-26T09:13:18.136Z,100327.26
2022-09-26T09:15:23.984Z,100327.34
2022-09-26T09:17:12.981Z,100330.80
2022-09-26T09:18:33.221Z,100328.15
2022-09-26T09:20:19.020Z,100328.45
2022-09-26T09:22:14.087Z,100329.84
2022-09-26T09:24:10.703Z,100331.77
2022-09-26T09:25:20.642Z,100332.47
2022-09-26T09:28:24.106Z,100327.52
2022-09-26T09:30:16.569Z,100324.48
2022-09-26T09:31:48.087Z,100330.81
2022-09-26T09:33:31.537Z,100327.84
2022-09-26T09:34:53.821Z,100330.16
2022-09-26T09:36:38.710Z,100331.95
2022-09-26T09:37:59.991Z,100331.47
2022-09-26T09:39:37.405Z,100334.59
2022-09-26T09:41:07.340Z,100331.92
2022-09-26T09:42:19.392Z,100330.14
2022-09-26T09:43:39.370Z,100328.35
2022-09-26T09:44:47.215Z,100327.92
2022-09-26T09:45:51.204Z,100326.11
2022-09-26T09:46:52.960Z,100324.65
2022-09-26T09:47:56.387Z,100323.50
2022-09-26T09:49:24.365Z,100327.05
2022-09-26T09:50:47.910Z,100329.97
2022-09-26T09:52:13.205Z,100332.99
2022-09-26T09:53:47.444Z,100335.00
2022-09-26T09:54:55.612Z,100335.75
2022-09-26T09:56:23.648Z,100336.67
2022-09-26T09:57:40.406Z,100335.98
2022-09-26T09:58:54.027Z,100335.10
2022-09-26T09:59:58.695Z,100332.32
2022-09-26T10:01:16.548Z,100338.70
2022-09-26T10:02:45.842Z,100339.59
2022-09-26T10:04:10.764Z,100341.66
2022-09-26T10:05:33.005Z,100341.93
2022-09-26T10:06:45.670Z,100339.05
2022-09-26T10:07:57.382Z,100336.12
2022-09-26T10:09:37.896Z,100335.84
2022-09-26T10:11:29.893Z,100338.14
2022-09-26T10:12:34.398Z,100334.63
2022-09-26T10:13:44.283Z,100338.55
2022-09-26T10:15:06.979Z,100336.09
2022-09-26T10:16:30.633Z,100336.74
2022-09-26T10:17:38.446Z,100337.40
2022-09-26T10:19:07.592Z,100336.45
2022-09-26T10:20:49.543Z,100338.19
2022-09-26T10:21:53.134Z,100341.15
2022-09-26T10:22:55.053Z,100337.95
2022-09-26T10:24:01.418Z,100338.57
2022-09-26T10:25:23.384Z,100333.30
2022-09-26T10:26:33.885Z,100334.83
2022-09-26T10:27:39.141Z,100326.91
2022-09-26T10:28:46.916Z,100328.05
2022-09-26T10:29:57.223Z,100329.29
2022-09-26T10:31:07.641Z,100332.21
2022-09-26T10:32:20.482Z,100335.52
2022-09-26T10:33:33.111Z,100334.09
2022-09-26T10:35:03.548Z,100332.79
2022-09-26T10:36:19.308Z,100331.48
2022-09-26T10:37:28.798Z,100330.29
2022-09-26T10:39:09.965Z,100332.83
2022-09-26T10:40:50.464Z,100330.77
2022-09-26T10:41:57.164Z,100334.64
2022-09-26T10:43:20.266Z,100334.91
2022-09-26T10:44:27.987Z,100334.10
2022-09-26T10:45:41.936Z,100335.30
2022-09-26T10:47:14.348Z,100334.02
2022-09-26T10:48:37.638Z,100336.65
2022-09-26T10:50:04.792Z,100333.56
2022-09-26T10:51:41.894Z,100335.13
2022-09-26T10:52:50.666Z,100332.85
2022-09-26T10:54:01.060Z,100332.69
2022-09-26T10:55:08.842Z,100331.93
2022-09-26T10:56:16.226Z,100327.20
2022-09-26T10:57:27.919Z,100325.79
2022-09-26T10:58:31.702Z,100323.67
2022-09-26T10:59:39.532Z,100323.80
2022-09-26T11:00:49.935Z,100325.60
2022-09-26T11:01:58.212Z,100326.57
2022-09-26T11:03:00.468Z,100325.79
2022-09-26T11:04:39.179Z,100325.63
2022-09-26T11:06:01.356Z,100322.64
2022-09-26T11:07:10.321Z,100322.70
2022-09-26T11:08:28.802Z,100322.55
2022-09-26T11:09:59.300Z,100325.05
2022-09-26T11:11:16.745Z,100322.13
2022-09-26T11:12:30.972Z,100327.60
2022-09-26T11:14:07.104Z,100323.21
2022-09-26T11:15:13.115Z,100330.10
2022-09-26T11:16:18.690Z,100329.83
2022-09-26T11:17:21.016Z,100329.67
2022-09-26T11:18:44.497Z,100325.51
2022-09-26T11:20:01.640Z,100327.44
2022-09-26T11:21:28.693Z,100323.17
2022-09-26T11:22:48.760Z,100328.84
2022-09-26T11:24:19.145Z,100333.20
2022-09-26T11:25:27.695Z,100332.66
2022-09-26T11:26:48.845Z,100334.85
2022-09-26T11:28:31.835Z,100332.59
2022-09-26T11:29:52.506Z,100332.66
2022-09-26T11:31:05.706Z,100336.09
2022-09-26T11:32:15.400Z,100334.13
2022-09-26T11:33:45.184Z,100330.79
2022-09-26T11:35:15.941Z,100330.05
2022-09-26T11:36:23.703Z,100332.02
2022-09-26T11:37:36.167Z,100327.89
2022-09-26T11:38:46.966Z,100327.26
2022-09-26T11:40:09.290Z,100328.18
2022-09-26T11:41:35.847Z,100327.38
2022-09-26T11:42:54.877Z,100330.09
2022-09-26T11:44:06.379Z,100327.73
2022-09-26T11:46:10.436Z,100328.16
2022-09-26T11:47:56.435Z,100323.65
2022-09-26T11:49:41.486Z,100323.67
2022-09-26T11:51:35.621Z,100321.03
2022-09-26T11:52:59.483Z,100320.13
2022-09-26T11:54:35.306Z,100323.10
2022-09-26T11:56:02.814Z,100323.87
2022-09-26T11:57:41.263Z,100324.90
2022-09-26T11:59:09.686Z,100321.95
2022-09-26T12:00:23.707Z,100321.52
2022-09-26T12:01:54.544Z,100319.46
2022-09-26T12:03:29.711Z,100319.41
2022-09-26T12:05:13.098Z,100321.55
2022-09-26T12:06:32.674Z,100316.95
2022-09-26T12:07:46.175Z,100319.65
2022-09-26T12:09:06.582Z,100324.70
2022-09-26T12:10:24.469Z,100323.18
2022-09-26T12:11:52.251Z,100317.65
2022-09-26T12:13:14.520Z,100323.39
2022-09-26T12:14:42.261Z,100319.93
2022-09-26T12:16:01.934Z,100320.46
2022-09-26T12:17:09.379Z,100321.40
2022-09-26T12:18:21.349Z,100323.08
2022-09-26T12:19:43.969Z,100324.05
2022-09-26T12:21:04.184Z,100321.23
2022-09-26T12:22:30.305Z,100329.05
2022-09-26T12:23:40.106Z,100328.34
2022-09-26T12:24:45.991Z,100327.86
2022-09-26T12:25:57.773Z,100326.46
2022-09-26T12:27:15.356Z,100329.76
2022-09-26T12:28:54.688Z,100330.73
2022-09-26T12:30:02.214Z,100327.50
2022-09-26T12:31:27.489Z,100326.42
2022-09-26T12:32:47.066Z,100328.84
2022-09-26T12:34:07.370Z,100328.55
2022-09-26T12:35:44.009Z,100328.14
2022-09-26T12:37:04.851Z,100324.32
2022-09-26T12:38:45.268Z,100321.69
2022-09-26T12:39:59.087Z,100323.90
2022-09-26T12:41:19.279Z,100319.27
2022-09-26T12:42:39.584Z,100319.50
2022-09-26T12:44:22.043Z,100319.40
2022-09-26T12:46:02.385Z,100316.30
2022-09-26T12:47:13.383Z,100313.83
2022-09-26T12:48:24.666Z,100308.80
2022-09-26T12:49:52.710Z,100310.98
2022-09-26T12:51:06.336Z,100304.36
2022-09-26T12:52:27.615Z,100305.80
2022-09-26T12:53:43.894Z,100306.61
2022-09-26T12:55:20.646Z,100303.46
2022-09-26T12:56:26.121Z,100299.73
2022-09-26T12:57:50.410Z,100301.64
2022-09-26T12:59:33.337Z,100302.14
2022-09-26T13:00:53.722Z,100301.95
2022-09-26T13:02:16.625Z,100298.39
2022-09-26T13:03:38.816Z,100300.79
2022-09-26T13:05:16.103Z,100300.98
2022-09-26T13:07:14.299Z,100298.02
2022-09-26T13:08:36.179Z,100293.39
2022-09-26T13:09:45.512Z,100295.36
2022-09-26T13:11:14.908Z,100294.80
2022-09-26T13:12:41.827Z,100297.40
2022-09-26T13:14:26.540Z,100294.27
2022-09-26T13:15:36.460Z,100292.62
2022-09-26T13:17:05.415Z,100291.68
2022-09-26T13:18:26.350Z,100291.06
2022-09-26T13:19:53.307Z,100290.59
2022-09-26T13:21:00.819Z,100287.48
2022-09-26T13:22:10.472Z,100287.64
2022-09-26T13:23:30.927Z,100287.73
2022-09-26T13:24:55.822Z,100294.48
2022-09-26T13:26:25.964Z,100293.23
2022-09-26T13:27:35.560Z,100290.48
2022-09-26T13:28:51.461Z,100295.61
2022-09-26T13:30:15.772Z,100294.16
2022-09-26T13:31:30.550Z,100291.73
2022-09-26T13:32:44.567Z,100294.55
2022-09-26T13:34:03.413Z,100294.13
2022-09-26T13:35:35.228Z,100292.48
2022-09-26T13:36:41.126Z,100293.63
2022-09-26T13:38:20.428Z,100292.99
2022-09-26T13:39:31.906Z,100292.54
2022-09-26T13:40:39.033Z,100295.61
2022-09-26T13:42:25.269Z,100297.13
2022-09-26T13:43:52.888Z,100290.37
2022-09-26T13:45:36.350Z,100295.73
2022-09-26T13:47:01.247Z,100295.41
2022-09-26T13:48:13.083Z,100295.77
2022-09-26T13:49:24.478Z,100300.80
2022-09-26T13:50:32.094Z,100296.73
2022-09-26T13:51:49.427Z,100293.45
2022-09-26T13:53:17.032Z,100296.23
2022-09-26T13:54:34.551Z,100293.90
2022-09-26T13:55:36.560Z,100299.21
2022-09-26T13:56:38.247Z,100297.67
2022-09-26T13:58:06.234Z,100296.81
2022-09-26T13:59:14.795Z,100301.65
2022-09-26T14:00:28.581Z,100300.11
2022-09-26T14:01:32.479Z,100296.83
2022-09-26T14:02:34.388Z,100297.67
2022-09-26T14:03:39.359Z,100297.68